createdAt,value
2018-07-25T00:02:20.129Z,99.90
2018-07-25T00:04:49.415Z,99.90
2018-07-25T00:10:11.887Z,99.90
2018-07-25T00:12:41.215Z,99.90
2018-07-25T00:15:10.492Z,99.90
2018-07-25T00:17:39.759Z,99.90
2018-07-25T00:20:09.131Z,99.90
2018-07-25T00:22:38.454Z,99.90
2018-07-25T00:27:36.511Z,99.90
2018-07-25T00:30:06.267Z,99.90
2018-07-25T00:32:35.507Z,99.90
2018-07-25T00:35:04.859Z,99.90
2018-07-25T00:37:34.149Z,99.90
2018-07-25T00:40:03.568Z,99.90
2018-07-25T00:42:32.730Z,99.90
2018-07-25T00:45:02.072Z,99.90
2018-07-25T00:47:31.450Z,99.90
2018-07-25T00:50:00.624Z,99.90
2018-07-25T00:52:29.883Z,99.90
2018-07-25T00:54:59.175Z,99.90
2018-07-25T00:57:28.485Z,99.90
2018-07-25T00:59:57.808Z,99.90
2018-07-25T01:02:27.158Z,99.90
2018-07-25T01:04:56.486Z,99.90
2018-07-25T01:07:25.769Z,99.90
2018-07-25T01:09:55.075Z,99.90
2018-07-25T01:12:24.370Z,99.90
2018-07-25T01:14:53.957Z,99.90
2018-07-25T01:17:23.286Z,99.90
2018-07-25T01:19:52.775Z,99.90
2018-07-25T01:22:21.954Z,99.90
2018-07-25T01:24:51.306Z,99.90
2018-07-25T01:27:20.626Z,99.90
2018-07-25T01:29:49.989Z,99.90
2018-07-25T01:32:19.287Z,99.90
2018-07-25T01:34:48.599Z,99.90
2018-07-25T01:37:17.856Z,99.90
2018-07-25T01:39:47.174Z,99.90
2018-07-25T01:42:16.495Z,99.90
2018-07-25T01:44:45.755Z,99.90
2018-07-25T01:47:14.997Z,99.90
2018-07-25T01:49:44.325Z,99.90
2018-07-25T01:52:13.646Z,99.90
2018-07-25T01:54:43.091Z,99.90
2018-07-25T01:57:12.402Z,99.90
2018-07-25T01:59:41.668Z,99.90
2018-07-25T02:02:10.884Z,99.90
2018-07-25T02:04:40.142Z,99.90
2018-07-25T02:07:09.667Z,99.90
2018-07-25T02:09:38.959Z,99.90
2018-07-25T02:12:08.608Z,99.90
2018-07-25T02:14:37.795Z,99.90
2018-07-25T02:17:07.149Z,99.90
2018-07-25T02:19:36.483Z,99.90
2018-07-25T02:24:34.435Z,99.90
2018-07-25T02:27:03.664Z,99.90
2018-07-25T02:29:32.895Z,99.90
2018-07-25T02:32:02.399Z,99.90
2018-07-25T02:34:31.639Z,99.90
2018-07-25T02:37:00.923Z,99.90
2018-07-25T02:39:30.143Z,99.90
2018-07-25T02:41:59.467Z,99.90
2018-07-25T02:44:28.680Z,99.90
2018-07-25T02:46:57.914Z,99.90
2018-07-25T02:49:27.202Z,99.90
2018-07-25T02:51:56.405Z,99.90
2018-07-25T02:54:25.593Z,99.90
2018-07-25T02:56:54.856Z,99.90
2018-07-25T02:59:24.061Z,99.90
2018-07-25T03:01:53.241Z,99.90
2018-07-25T03:04:22.554Z,99.90
2018-07-25T03:06:51.789Z,99.90
2018-07-25T03:09:20.952Z,99.90
2018-07-25T03:11:50.130Z,99.90
2018-07-25T03:14:19.407Z,99.90
2018-07-25T03:16:48.847Z,99.90
2018-07-25T03:19:18.115Z,99.90
2018-07-25T03:21:47.446Z,99.90
2018-07-25T03:24:16.767Z,99.90
2018-07-25T03:26:45.927Z,99.90
2018-07-25T03:29:15.194Z,99.90
2018-07-25T03:31:44.495Z,99.90
2018-07-25T03:34:13.755Z,99.90
2018-07-25T03:36:42.987Z,99.90
2018-07-25T03:39:12.165Z,99.90
2018-07-25T03:41:41.428Z,99.90
2018-07-25T03:44:10.661Z,99.90
2018-07-25T03:46:39.974Z,99.90
2018-07-25T03:49:09.309Z,99.90
2018-07-25T03:51:38.666Z,99.90
2018-07-25T03:54:14.513Z,99.90
2018-07-25T03:56:43.823Z,99.90
2018-07-25T03:59:13.015Z,99.90
2018-07-25T04:04:10.919Z,99.90
2018-07-25T04:06:40.137Z,99.90
2018-07-25T04:09:10.046Z,99.90
2018-07-25T04:11:39.307Z,99.90
2018-07-25T04:16:37.363Z,99.90
2018-07-25T04:19:06.809Z,99.90
2018-07-25T04:21:36.011Z,99.90
2018-07-25T04:24:05.402Z,99.90
2018-07-25T04:26:34.985Z,99.90
2018-07-25T04:29:04.263Z,99.90
2018-07-25T04:31:33.565Z,99.90
2018-07-25T04:34:02.879Z,99.90
2018-07-25T04:36:32.175Z,99.90
2018-07-25T04:39:01.573Z,99.90
2018-07-25T04:41:30.889Z,99.90
2018-07-25T04:44:00.176Z,99.90
2018-07-25T04:46:29.525Z,99.90
2018-07-25T04:48:58.862Z,99.90
2018-07-25T04:51:28.170Z,99.90
2018-07-25T04:53:57.526Z,99.90
2018-07-25T04:56:26.790Z,99.90
2018-07-25T04:58:56.010Z,99.90
2018-07-25T05:01:25.263Z,99.90
2018-07-25T05:03:54.588Z,99.90
2018-07-25T05:06:23.922Z,99.90
2018-07-25T05:08:53.209Z,99.90
2018-07-25T05:11:22.598Z,99.90
2018-07-25T05:13:51.827Z,99.90
2018-07-25T05:16:21.135Z,99.90
2018-07-25T05:18:50.435Z,99.90
2018-07-25T05:21:19.690Z,99.90
2018-07-25T05:23:48.992Z,99.90
2018-07-25T05:26:18.326Z,99.90
2018-07-25T05:28:47.625Z,99.90
2018-07-25T05:31:16.795Z,99.90
2018-07-25T05:33:46.061Z,99.90
2018-07-25T05:36:15.406Z,99.90
2018-07-25T05:41:13.532Z,99.90
2018-07-25T05:43:42.953Z,99.90
2018-07-25T05:46:12.236Z,99.90
2018-07-25T05:48:41.585Z,99.90
2018-07-25T05:51:10.848Z,99.90
2018-07-25T05:53:40.128Z,99.90
2018-07-25T05:56:09.548Z,99.90
2018-07-25T05:58:38.869Z,99.90
2018-07-25T06:01:08.158Z,99.90
2018-07-25T06:03:37.615Z,99.90
2018-07-25T06:06:07.181Z,99.90
2018-07-25T06:08:36.599Z,99.90
2018-07-25T06:11:06.581Z,99.90
2018-07-25T06:13:35.853Z,99.90
2018-07-25T06:16:05.342Z,99.90
2018-07-25T06:18:34.889Z,99.90
2018-07-25T06:21:04.266Z,99.90
2018-07-25T06:23:33.587Z,99.90
2018-07-25T06:26:03.108Z,99.90
2018-07-25T06:28:32.235Z,99.90
2018-07-25T06:31:01.497Z,99.90
2018-07-25T06:33:31.139Z,99.90
2018-07-25T06:36:00.499Z,99.90
2018-07-25T06:38:29.766Z,99.90
2018-07-25T06:40:58.971Z,99.90
2018-07-25T06:43:28.276Z,99.90
2018-07-25T06:45:57.419Z,99.90
2018-07-25T06:48:26.682Z,99.90
2018-07-25T06:50:55.974Z,99.90
2018-07-25T06:53:25.235Z,99.90
2018-07-25T06:55:54.554Z,99.90
2018-07-25T06:58:23.840Z,99.90
2018-07-25T07:00:53.176Z,99.90
2018-07-25T07:03:22.560Z,99.90
2018-07-25T07:05:51.840Z,99.90
2018-07-25T07:08:21.177Z,99.90
2018-07-25T07:10:50.444Z,99.90
2018-07-25T07:13:19.678Z,99.90
2018-07-25T07:15:48.870Z,99.90
2018-07-25T07:18:18.038Z,99.90
2018-07-25T07:20:47.266Z,99.90
2018-07-25T07:23:16.523Z,99.90
2018-07-25T07:25:45.792Z,99.90
2018-07-25T07:28:15.295Z,99.90
2018-07-25T07:30:44.650Z,99.90
2018-07-25T07:33:13.994Z,99.90
2018-07-25T07:35:43.359Z,99.90
2018-07-25T07:38:12.691Z,99.90
2018-07-25T07:40:41.974Z,99.90
2018-07-25T07:45:40.016Z,99.90
2018-07-25T07:48:09.391Z,99.90
2018-07-25T07:50:38.671Z,99.90
2018-07-25T07:53:07.974Z,99.90
2018-07-25T07:55:37.323Z,99.90
2018-07-25T07:58:06.752Z,99.90
2018-07-25T08:00:36.117Z,99.90
2018-07-25T08:03:05.494Z,99.90
2018-07-25T08:05:34.776Z,99.90
2018-07-25T08:08:04.008Z,99.90
2018-07-25T08:10:33.290Z,99.90
2018-07-25T08:13:02.451Z,99.90
2018-07-25T08:15:31.718Z,99.90
2018-07-25T08:18:00.995Z,99.90
2018-07-25T08:20:30.279Z,99.90
2018-07-25T08:22:59.577Z,99.90
2018-07-25T08:25:28.766Z,99.90
2018-07-25T08:27:58.024Z,99.40
2018-07-25T08:30:27.319Z,97.90
2018-07-25T08:32:56.623Z,97.20
2018-07-25T08:35:25.963Z,94.40
2018-07-25T08:37:55.415Z,95.70
2018-07-25T08:40:24.755Z,93.90
2018-07-25T08:42:54.205Z,93.60
2018-07-25T08:45:23.459Z,91.20
2018-07-25T08:47:52.635Z,91.80
2018-07-25T08:50:21.957Z,92.30
2018-07-25T08:52:51.285Z,91.10
2018-07-25T08:55:20.603Z,91.20
2018-07-25T09:02:47.591Z,82.00
2018-07-25T09:05:16.903Z,82.90
2018-07-25T09:12:43.776Z,77.90
2018-07-25T09:15:13.034Z,75.10
2018-07-25T09:17:42.279Z,79.70
2018-07-25T09:25:09.319Z,80.80
2018-07-25T09:32:36.198Z,73.40
2018-07-25T09:35:05.591Z,70.00
2018-07-25T09:40:03.774Z,62.50
2018-07-25T09:42:33.055Z,62.60
2018-07-25T09:47:31.167Z,57.90
2018-07-25T10:09:50.899Z,58.60
2018-07-25T10:14:49.172Z,55.70
2018-07-25T10:17:18.523Z,55.10
2018-07-25T10:19:48.030Z,54.70
2018-07-25T10:25:10.739Z,54.00
2018-07-25T10:27:40.034Z,56.90
2018-07-25T10:32:38.097Z,51.90
2018-07-25T10:35:07.473Z,51.60
2018-07-25T10:40:06.451Z,55.90
2018-07-25T10:42:35.867Z,51.60
2018-07-25T10:47:34.430Z,55.30
2018-07-25T10:50:03.831Z,52.00
2018-07-25T10:52:33.218Z,49.70
2018-07-25T10:55:02.991Z,51.60
2018-07-25T10:57:32.728Z,49.90
2018-07-25T11:07:32.334Z,48.70
2018-07-25T11:12:30.434Z,52.00
2018-07-25T11:15:00.168Z,49.20
2018-07-25T11:17:29.847Z,47.70
2018-07-25T11:19:59.837Z,51.80
2018-07-25T11:22:29.570Z,47.80
2018-07-25T11:24:59.183Z,47.10
2018-07-25T11:27:28.563Z,46.60
2018-07-25T11:29:57.910Z,47.50
2018-07-25T11:34:56.094Z,47.40
2018-07-25T11:37:25.409Z,49.00
2018-07-25T11:47:39.426Z,50.60
2018-07-25T11:50:08.874Z,52.20
2018-07-25T11:52:42.779Z,46.10
2018-07-25T11:55:12.087Z,46.40
2018-07-25T12:00:10.179Z,46.10
2018-07-25T12:02:39.450Z,45.20
2018-07-25T12:07:41.033Z,47.10
2018-07-25T12:10:10.467Z,47.60
2018-07-25T12:12:39.888Z,45.80
2018-07-25T12:15:09.927Z,46.00
2018-07-25T12:20:08.664Z,45.80
2018-07-25T12:22:38.015Z,46.30
2018-07-25T12:25:08.209Z,44.20
2018-07-25T15:56:52.815Z,47.50
2018-07-25T15:59:22.229Z,47.90
2018-07-25T16:04:20.347Z,51.00
2018-07-25T16:06:49.712Z,53.00
2018-07-25T16:09:19.163Z,54.10
2018-07-25T16:11:48.813Z,53.70
2018-07-25T16:14:18.201Z,53.70
2018-07-25T16:16:47.884Z,55.80
2018-07-25T16:19:17.235Z,56.00
2018-07-25T16:21:46.726Z,54.80
2018-07-25T16:24:16.195Z,56.20
2018-07-25T16:26:45.541Z,56.10
2018-07-25T16:29:14.927Z,56.60
2018-07-25T16:31:44.340Z,57.90
2018-07-25T16:34:13.673Z,57.10
2018-07-25T16:36:42.918Z,58.80
2018-07-25T16:39:16.102Z,58.30
2018-07-25T16:41:45.476Z,57.60
2018-07-25T16:44:15.193Z,59.20
2018-07-25T16:46:44.545Z,59.10
2018-07-25T16:49:13.906Z,58.60
2018-07-25T16:51:43.238Z,59.30
2018-07-25T16:54:12.553Z,58.80
2018-07-25T16:56:42.214Z,59.20
2018-07-25T16:59:11.695Z,59.80
2018-07-25T17:41:30.877Z,55.90
2018-07-25T17:44:00.295Z,56.50
2018-07-25T17:46:29.693Z,57.60
2018-07-25T17:48:59.052Z,58.90
2018-07-25T17:51:28.410Z,59.40
2018-07-25T17:53:57.731Z,57.60
2018-07-25T17:56:27.058Z,58.10
2018-07-25T17:58:56.349Z,59.30
2018-07-25T18:01:25.766Z,58.70
2018-07-25T18:03:55.098Z,58.60
2018-07-25T18:06:24.506Z,59.40
2018-07-25T18:08:53.803Z,60.00
2018-07-25T18:11:23.090Z,60.60
2018-07-25T18:13:57.420Z,61.90
2018-07-25T18:16:26.888Z,61.80
2018-07-25T18:18:56.713Z,61.40
2018-07-25T18:21:26.045Z,61.90
2018-07-25T18:23:55.413Z,62.90
2018-07-25T18:26:24.744Z,63.60
2018-07-25T18:28:54.139Z,62.70
2018-07-25T18:31:23.447Z,64.10
2018-07-25T18:33:52.760Z,64.20
2018-07-25T18:36:22.136Z,64.70
2018-07-25T18:38:51.472Z,65.10
2018-07-25T18:41:20.927Z,65.90
2018-07-25T18:43:50.332Z,66.30
2018-07-25T18:46:19.743Z,66.40
2018-07-25T18:48:49.140Z,66.90
2018-07-25T18:51:18.635Z,68.10
2018-07-25T18:53:48.000Z,68.60
2018-07-25T18:56:17.434Z,67.90
2018-07-25T18:58:46.783Z,67.70
2018-07-25T19:01:16.110Z,68.40
2018-07-25T19:03:45.480Z,69.10
2018-07-25T19:06:14.859Z,69.40
2018-07-25T19:08:44.650Z,68.60
2018-07-25T19:11:14.102Z,70.00
2018-07-25T19:13:48.712Z,70.60
2018-07-25T19:16:18.047Z,71.50
2018-07-25T19:18:47.401Z,72.60
2018-07-25T19:21:16.876Z,70.20
2018-07-25T19:23:46.123Z,71.90
2018-07-25T19:26:15.727Z,72.30
2018-07-25T19:28:45.206Z,71.70
2018-07-25T19:31:14.523Z,69.20
2018-07-25T19:33:43.802Z,65.70
2018-07-25T19:36:13.179Z,72.90
2018-07-25T19:38:42.630Z,72.10
2018-07-25T19:41:11.943Z,73.00
2018-07-25T19:43:43.618Z,74.10
2018-07-25T19:46:13.043Z,75.50
2018-07-25T19:48:42.809Z,74.20
2018-07-25T19:51:12.100Z,74.70
2018-07-25T19:53:42.108Z,75.70
2018-07-25T19:56:15.008Z,75.90
2018-07-25T19:58:44.255Z,74.90
2018-07-25T20:01:13.560Z,75.90
2018-07-25T20:03:51.546Z,78.80
2018-07-25T20:06:22.405Z,75.90
2018-07-25T20:08:52.964Z,80.40
2018-07-25T20:11:23.169Z,78.30
2018-07-25T20:13:57.931Z,80.50
2018-07-25T20:16:40.199Z,81.40
2018-07-25T20:19:09.438Z,80.00
2018-07-25T20:21:38.798Z,84.00
2018-07-25T20:24:08.156Z,85.50
2018-07-25T20:26:38.001Z,84.10
2018-07-25T20:29:14.654Z,82.50
2018-07-25T20:32:03.372Z,89.80
2018-07-25T20:34:32.523Z,90.60
2018-07-25T20:37:01.591Z,91.60
2018-07-25T20:39:30.681Z,91.90
2018-07-25T20:41:59.742Z,92.70
2018-07-25T20:44:28.829Z,93.70
2018-07-25T20:46:57.905Z,91.10
2018-07-25T20:49:26.947Z,94.10
2018-07-25T20:51:56.022Z,93.70
2018-07-25T20:56:53.921Z,95.40
2018-07-25T20:59:22.962Z,95.60
2018-07-25T21:01:52.038Z,98.50
2018-07-25T21:04:21.105Z,97.10
2018-07-25T21:06:50.148Z,98.90
2018-07-25T21:09:19.222Z,99.90
2018-07-25T21:11:48.278Z,99.10
2018-07-25T21:14:17.343Z,99.90
2018-07-25T21:16:46.617Z,99.90
2018-07-25T21:19:15.885Z,99.90
2018-07-25T21:21:44.973Z,99.90
2018-07-25T21:26:42.600Z,99.90
2018-07-25T21:29:11.659Z,99.90
2018-07-25T21:31:40.758Z,99.90
2018-07-25T21:34:09.811Z,99.90
2018-07-25T21:36:38.881Z,99.90
2018-07-25T21:39:10.435Z,99.90
2018-07-25T21:41:39.491Z,99.90
2018-07-25T21:44:08.593Z,99.90
2018-07-25T21:46:37.755Z,99.90
2018-07-25T21:49:06.973Z,99.90
2018-07-25T21:51:36.016Z,99.90
2018-07-25T21:54:05.122Z,99.90
2018-07-25T21:56:34.193Z,99.90
2018-07-25T21:59:03.353Z,99.90
2018-07-25T22:01:32.398Z,99.90
2018-07-25T22:04:01.511Z,99.90
2018-07-25T22:06:30.527Z,99.90
2018-07-25T22:08:59.756Z,99.90
2018-07-25T22:11:28.822Z,99.90
2018-07-25T22:13:58.458Z,99.90
2018-07-25T22:16:27.989Z,99.90
2018-07-25T22:18:57.061Z,99.90
2018-07-25T22:21:26.335Z,99.90
2018-07-25T22:23:55.413Z,99.90
2018-07-25T22:26:24.430Z,99.90
2018-07-25T22:28:53.473Z,99.90
2018-07-25T22:31:22.554Z,99.90
2018-07-25T22:33:51.645Z,99.90
2018-07-25T22:36:20.793Z,99.90
2018-07-25T22:38:49.860Z,99.90
2018-07-25T22:41:18.898Z,99.90
2018-07-25T22:43:47.914Z,99.90
2018-07-25T22:46:16.961Z,99.90
2018-07-25T22:48:46.038Z,99.90
2018-07-25T22:51:15.090Z,99.90
2018-07-25T22:53:44.137Z,99.90
2018-07-25T22:56:13.483Z,99.90
2018-07-25T22:58:42.676Z,99.90
2018-07-25T23:01:11.745Z,99.90
2018-07-25T23:03:40.759Z,99.90
2018-07-25T23:06:09.815Z,99.90
2018-07-25T23:08:38.858Z,99.90
2018-07-25T23:11:07.901Z,99.90
2018-07-25T23:13:36.955Z,99.90
2018-07-25T23:16:06.174Z,99.90
2018-07-25T23:18:35.365Z,99.90
2018-07-25T23:21:04.500Z,99.90
2018-07-25T23:23:33.545Z,99.90
2018-07-25T23:26:02.571Z,99.90
2018-07-25T23:28:31.646Z,99.90
2018-07-25T23:31:00.774Z,99.90
2018-07-25T23:33:30.007Z,99.90
2018-07-25T23:35:59.227Z,99.90
2018-07-25T23:38:28.499Z,99.90
2018-07-25T23:40:57.815Z,99.90
2018-07-25T23:43:27.038Z,99.90
2018-07-25T23:45:56.334Z,99.90
2018-07-25T23:48:25.627Z,99.90
2018-07-25T23:50:54.903Z,99.90
2018-07-25T23:53:24.556Z,99.90
2018-07-25T23:55:53.838Z,99.90
2018-07-25T23:58:23.233Z,99.90
